Aérodrome :
LOGIN :

S'inscrire | Disclaimer

   EN    FR    IT 

 










Légende :    VFR   VFR Marginal   IFR   IFR Intensif   IFR Très Intensif
Visi : 
Plafond : 
>= 8 km
>= 3000ft
5 à 8 km
1000 à 3000 ft
1500m à 5 km
500 à 1000 ft
800 à 1500m
200 à 500 ft
< 800m
< 200 ft
Symboles :   Orages  Brouillard  Fortes neiges  Fortes précipitations  Vent > 20 kt
SIGMETs :   Divers  Orages  Givrage  Turbulence  Onde Orograph.  Cendres Volcan.







- Altitude de l'aérodrome : 436 ft
- Code IATA : ANG
- Voir les cartes d'approche


LFBU - Angoulême Brie Champniers

DERNIER METAR :
  • 190430Z AUTO 07002KT 0500 0450 R28/0800U FG VV/// 06/05 Q1021

METARs EXPIRÉS :
  • 190400Z AUTO 00000KT 0350 R28/0400N FG VV/// 06/06 Q1021
  • 190330Z AUTO 35004KT 0250 R28/0325N FG VV/// 07/06 Q1021
  • 190300Z AUTO VRB02KT 0450 0350 R28/0500N FG VV/// 06/06 Q1021
  • 190230Z AUTO 00000KT 0450 0400 R28/0550N FG VV/// 07/07 Q1021
  • 190200Z AUTO 00000KT 0600 0550 R28/0650U FG VV/// 07/07 Q1021

TAF TAF LFBU
Valide du 18 à 18h jusqu'au 19 à 18h UTC


181700Z 1818/1918 23005KT CAVOK
BECMG 1820/1822 VRB03KT
BECMG 1822/1824 BKN025
PROB30
TEMPO 1822/1903 0800 BCFG
TEMPO 1903/1907 4500 -RA BKN005
Pas de NOTAMs connus pour ce terrain.



MET'MAP, la Météo Aéronautique d'un coup d'oeil ! - Copyright ORBIFLY Décembre 2007 - Disclaimer

ORBIFLY MET'MAP TEAM :

Programmation & Développement : Alexandra Zaïnal
Conception & Développement : Baudouin d'Aumeries
Co-Programmation & Développement : Marc-Olivier Méhu
Soutien technique & logistique : Manuel Goepfert

Contact : metmap@orbifly.com




SOURCES & CREDITS :

   NOAA